Sunday, May 27, 2018, 9:55 AM GMT
Back to Local

CWPK, Parent, Que.

Location: , , Canada Lat: 47.917
Local Time: 9:55 AM GMT ( 9:55 GMT) Lon: -74.617
Time Zone: GMT Elev: 1450 ft

Show me the last for .
Show Coded

Time T Td Feel RH Dir Speed Gust Alt SLP Vis Weather Sky Remarks
2018-05-27 09:00 44 29 43 54 110° 3 - - 30.08 0 None
2018-05-27 08:00 46 28 45 49 110° 3 - - 30.07 0 None
2018-05-27 07:00 46 27 - 48 110° 2 - - 30.07 0 None
2018-05-27 06:00 48 26 47 42 120° 3 - - 30.07 0 None
2018-05-27 05:00 49 27 - 41 170° 1 - - 30.07 0 None
2018-05-27 04:00 52 27 - 37 120° 2 - - 30.05 0 None
2018-05-27 03:00 53 28 - 37 120° 2 - - 30.03 0 None
2018-05-27 02:00 52 26 - 36 130° 1 - - 30.03 0 None
2018-05-27 01:00 58 23 - 26 110° 1 - - 30.00 0 None
2018-05-27 00:00 63 25 - 22 40° 2 - - 29.97 0 None
2018-05-26 23:00 66 20 - 16 10° 5 - - 29.96 0 None
2018-05-26 22:00 67 21 - 17 50° 5 - - 29.94 0 None
2018-05-26 21:00 67 17 - 14 40° 6 - - 29.93 0 None
2018-05-26 18:00 63 25 - 23 60° 6 - - 29.92 0 None
2018-05-26 17:00 62 29 - 28 110° 2 - - 29.90 0 None
2018-05-26 16:00 58 29 - 32 30° 5 - - 29.90 0 None
2018-05-26 15:00 58 31 - 35 60° 6 - - 29.90 0 None
2018-05-26 14:00 55 33 - 42 50° 6 - - 29.88 0 None
2018-05-26 13:00 54 37 - 53 40° 5 - - 29.86 0 None
2018-05-26 12:00 51 35 - 52 50° 5 - - 29.85 0 None
2018-05-26 11:00 49 36 - 59 30° 2 - - 29.82 0 None
2018-05-26 10:00 49 36 - 59 10° 2 - - 29.77 0 None

Support USWX by starting your Amazon purchase here.